sensor_id;sensor_type;location;lat;lon;timestamp;P1;durP1;ratioP1;P2;durP2;ratioP2
7003;SDS011;3542;48.812;9.146;2022-12-07T00:00:29;12.80;;;9.83;;
7003;SDS011;3542;48.812;9.146;2022-12-07T00:02:55;12.90;;;9.20;;
7003;SDS011;3542;48.812;9.146;2022-12-07T00:05:20;10.03;;;6.47;;
7003;SDS011;3542;48.812;9.146;2022-12-07T00:07:46;9.67;;;7.47;;
7003;SDS011;3542;48.812;9.146;2022-12-07T00:10:11;11.63;;;7.47;;
7003;SDS011;3542;48.812;9.146;2022-12-07T00:12:37;11.03;;;7.83;;
7003;SDS011;3542;48.812;9.146;2022-12-07T00:15:02;11.50;;;7.67;;
7003;SDS011;3542;48.812;9.146;2022-12-07T00:17:28;11.60;;;8.03;;
7003;SDS011;3542;48.812;9.146;2022-12-07T00:19:54;11.33;;;8.00;;
7003;SDS011;3542;48.812;9.146;2022-12-07T00:22:19;12.90;;;8.67;;
7003;SDS011;3542;48.812;9.146;2022-12-07T00:24:45;13.80;;;9.13;;
7003;SDS011;3542;48.812;9.146;2022-12-07T00:27:10;10.20;;;8.50;;
7003;SDS011;3542;48.812;9.146;2022-12-07T00:29:36;11.13;;;8.63;;
7003;SDS011;3542;48.812;9.146;2022-12-07T00:32:02;13.77;;;9.13;;
7003;SDS011;3542;48.812;9.146;2022-12-07T00:34:28;13.93;;;8.73;;
7003;SDS011;3542;48.812;9.146;2022-12-07T00:36:53;11.37;;;8.40;;
7003;SDS011;3542;48.812;9.146;2022-12-07T00:39:19;12.93;;;9.00;;
7003;SDS011;3542;48.812;9.146;2022-12-07T00:41:44;12.07;;;9.03;;
7003;SDS011;3542;48.812;9.146;2022-12-07T00:44:10;13.20;;;8.33;;
7003;SDS011;3542;48.812;9.146;2022-12-07T00:46:35;11.00;;;8.83;;
7003;SDS011;3542;48.812;9.146;2022-12-07T00:49:01;11.00;;;8.60;;
7003;SDS011;3542;48.812;9.146;2022-12-07T00:51:26;12.07;;;8.13;;
7003;SDS011;3542;48.812;9.146;2022-12-07T00:53:52;10.27;;;8.03;;
7003;SDS011;3542;48.812;9.146;2022-12-07T00:56:19;12.57;;;9.40;;
7003;SDS011;3542;48.812;9.146;2022-12-07T00:58:49;10.10;;;8.10;;
7003;SDS011;3542;48.812;9.146;2022-12-07T01:01:16;10.43;;;9.30;;
7003;SDS011;3542;48.812;9.146;2022-12-07T01:03:42;11.97;;;8.50;;
7003;SDS011;3542;48.812;9.146;2022-12-07T01:06:07;12.03;;;9.23;;
7003;SDS011;3542;48.812;9.146;2022-12-07T01:08:33;14.67;;;10.30;;
7003;SDS011;3542;48.812;9.146;2022-12-07T01:11:02;16.23;;;10.30;;
7003;SDS011;3542;48.812;9.146;2022-12-07T01:13:29;12.90;;;10.07;;
7003;SDS011;3542;48.812;9.146;2022-12-07T01:15:56;13.20;;;10.07;;
7003;SDS011;3542;48.812;9.146;2022-12-07T01:18:24;14.93;;;10.07;;
7003;SDS011;3542;48.812;9.146;2022-12-07T01:21:01;13.33;;;8.90;;
7003;SDS011;3542;48.812;9.146;2022-12-07T01:23:30;12.70;;;8.40;;
7003;SDS011;3542;48.812;9.146;2022-12-07T01:25:57;11.47;;;8.93;;
7003;SDS011;3542;48.812;9.146;2022-12-07T01:28:23;14.60;;;9.53;;
7003;SDS011;3542;48.812;9.146;2022-12-07T01:31:02;13.40;;;8.90;;
7003;SDS011;3542;48.812;9.146;2022-12-07T01:33:30;14.13;;;9.40;;
7003;SDS011;3542;48.812;9.146;2022-12-07T01:36:31;11.23;;;8.60;;
7003;SDS011;3542;48.812;9.146;2022-12-07T01:38:53;11.30;;;7.73;;
7003;SDS011;3542;48.812;9.146;2022-12-07T01:41:21;10.77;;;8.10;;
7003;SDS011;3542;48.812;9.146;2022-12-07T01:46:35;12.47;;;8.37;;
7003;SDS011;3542;48.812;9.146;2022-12-07T01:49:01;13.13;;;9.30;;
7003;SDS011;3542;48.812;9.146;2022-12-07T01:51:30;13.50;;;8.40;;
7003;SDS011;3542;48.812;9.146;2022-12-07T01:53:55;13.17;;;9.70;;
7003;SDS011;3542;48.812;9.146;2022-12-07T01:56:23;13.40;;;9.20;;
7003;SDS011;3542;48.812;9.146;2022-12-07T01:58:51;12.50;;;8.63;;
7003;SDS011;3542;48.812;9.146;2022-12-07T03:32:16;10.90;;;7.97;;
7003;SDS011;3542;48.812;9.146;2022-12-07T03:35:08;10.37;;;7.33;;
7003;SDS011;3542;48.812;9.146;2022-12-07T03:37:43;11.73;;;7.73;;
7003;SDS011;3542;48.812;9.146;2022-12-07T03:40:24;13.33;;;8.00;;
7003;SDS011;3542;48.812;9.146;2022-12-07T03:43:04;12.70;;;7.80;;
7003;SDS011;3542;48.812;9.146;2022-12-07T03:48:24;11.20;;;8.17;;
7003;SDS011;3542;48.812;9.146;2022-12-07T03:53:39;12.00;;;7.50;;
7003;SDS011;3542;48.812;9.146;2022-12-07T03:56:08;11.13;;;7.50;;
7003;SDS011;3542;48.812;9.146;2022-12-07T03:58:35;11.70;;;8.03;;
7003;SDS011;3542;48.812;9.146;2022-12-07T04:01:01;8.73;;;6.67;;
7003;SDS011;3542;48.812;9.146;2022-12-07T04:03:27;11.67;;;7.90;;
7003;SDS011;3542;48.812;9.146;2022-12-07T04:05:53;10.13;;;7.60;;
7003;SDS011;3542;48.812;9.146;2022-12-07T04:08:19;10.57;;;7.67;;
7003;SDS011;3542;48.812;9.146;2022-12-07T04:10:44;9.23;;;6.23;;
7003;SDS011;3542;48.812;9.146;2022-12-07T04:13:10;10.87;;;6.03;;
7003;SDS011;3542;48.812;9.146;2022-12-07T04:15:35;11.03;;;6.60;;
7003;SDS011;3542;48.812;9.146;2022-12-07T04:18:01;8.73;;;6.10;;
7003;SDS011;3542;48.812;9.146;2022-12-07T04:20:26;8.10;;;6.57;;
7003;SDS011;3542;48.812;9.146;2022-12-07T04:22:52;7.60;;;5.93;;
7003;SDS011;3542;48.812;9.146;2022-12-07T04:25:18;9.43;;;5.70;;
7003;SDS011;3542;48.812;9.146;2022-12-07T04:27:43;9.33;;;6.47;;
7003;SDS011;3542;48.812;9.146;2022-12-07T04:30:09;7.17;;;5.23;;
7003;SDS011;3542;48.812;9.146;2022-12-07T04:32:34;7.10;;;5.00;;
7003;SDS011;3542;48.812;9.146;2022-12-07T04:35:00;11.07;;;7.30;;
7003;SDS011;3542;48.812;9.146;2022-12-07T04:37:25;8.57;;;6.37;;
7003;SDS011;3542;48.812;9.146;2022-12-07T04:39:51;5.33;;;4.83;;
7003;SDS011;3542;48.812;9.146;2022-12-07T04:42:16;3.33;;;3.03;;
7003;SDS011;3542;48.812;9.146;2022-12-07T04:44:42;5.73;;;4.00;;
7003;SDS011;3542;48.812;9.146;2022-12-07T04:47:07;5.50;;;4.33;;
7003;SDS011;3542;48.812;9.146;2022-12-07T04:49:33;4.77;;;3.13;;
7003;SDS011;3542;48.812;9.146;2022-12-07T04:51:59;4.53;;;4.03;;
7003;SDS011;3542;48.812;9.146;2022-12-07T04:54:24;6.80;;;5.37;;
7003;SDS011;3542;48.812;9.146;2022-12-07T04:56:50;5.63;;;5.13;;
7003;SDS011;3542;48.812;9.146;2022-12-07T04:59:16;5.13;;;4.57;;
7003;SDS011;3542;48.812;9.146;2022-12-07T05:01:42;9.13;;;4.30;;
7003;SDS011;3542;48.812;9.146;2022-12-07T05:04:08;3.77;;;3.47;;
7003;SDS011;3542;48.812;9.146;2022-12-07T05:06:34;4.17;;;3.50;;
7003;SDS011;3542;48.812;9.146;2022-12-07T05:09:01;6.20;;;4.30;;
7003;SDS011;3542;48.812;9.146;2022-12-07T05:11:27;5.53;;;4.20;;
7003;SDS011;3542;48.812;9.146;2022-12-07T05:16:41;5.13;;;4.10;;
7003;SDS011;3542;48.812;9.146;2022-12-07T05:19:08;5.17;;;4.20;;
7003;SDS011;3542;48.812;9.146;2022-12-07T05:21:34;4.57;;;3.73;;
7003;SDS011;3542;48.812;9.146;2022-12-07T05:24:00;5.27;;;3.83;;
7003;SDS011;3542;48.812;9.146;2022-12-07T05:26:26;6.10;;;4.47;;
7003;SDS011;3542;48.812;9.146;2022-12-07T05:28:52;5.03;;;4.30;;
7003;SDS011;3542;48.812;9.146;2022-12-07T05:31:19;5.40;;;4.60;;
7003;SDS011;3542;48.812;9.146;2022-12-07T05:33:44;8.50;;;5.60;;
7003;SDS011;3542;48.812;9.146;2022-12-07T05:36:10;8.50;;;6.07;;
7003;SDS011;3542;48.812;9.146;2022-12-07T05:38:36;9.80;;;7.17;;
7003;SDS011;3542;48.812;9.146;2022-12-07T05:41:02;12.53;;;6.23;;
7003;SDS011;3542;48.812;9.146;2022-12-07T05:43:28;8.40;;;5.97;;
7003;SDS011;3542;48.812;9.146;2022-12-07T05:45:54;7.00;;;5.73;;
7003;SDS011;3542;48.812;9.146;2022-12-07T05:48:20;7.67;;;5.73;;
7003;SDS011;3542;48.812;9.146;2022-12-07T05:50:49;8.73;;;6.33;;
7003;SDS011;3542;48.812;9.146;2022-12-07T05:53:15;10.20;;;6.27;;
7003;SDS011;3542;48.812;9.146;2022-12-07T05:55:41;13.23;;;7.00;;
7003;SDS011;3542;48.812;9.146;2022-12-07T05:58:07;10.53;;;7.00;;
7003;SDS011;3542;48.812;9.146;2022-12-07T06:00:51;10.40;;;7.10;;
7003;SDS011;3542;48.812;9.146;2022-12-07T06:03:18;13.37;;;7.60;;
7003;SDS011;3542;48.812;9.146;2022-12-07T06:05:44;8.10;;;6.83;;
7003;SDS011;3542;48.812;9.146;2022-12-07T06:08:09;8.90;;;6.73;;
7003;SDS011;3542;48.812;9.146;2022-12-07T06:10:35;8.50;;;6.77;;
7003;SDS011;3542;48.812;9.146;2022-12-07T06:13:00;8.80;;;6.27;;
7003;SDS011;3542;48.812;9.146;2022-12-07T06:15:26;12.60;;;7.03;;
7003;SDS011;3542;48.812;9.146;2022-12-07T06:17:51;10.67;;;6.87;;
7003;SDS011;3542;48.812;9.146;2022-12-07T06:20:17;11.83;;;7.10;;
7003;SDS011;3542;48.812;9.146;2022-12-07T06:22:42;9.07;;;6.23;;
7003;SDS011;3542;48.812;9.146;2022-12-07T06:25:08;10.83;;;7.27;;
7003;SDS011;3542;48.812;9.146;2022-12-07T06:27:34;9.70;;;6.90;;
7003;SDS011;3542;48.812;9.146;2022-12-07T06:30:00;10.43;;;6.90;;
7003;SDS011;3542;48.812;9.146;2022-12-07T06:32:31;7.37;;;6.03;;
7003;SDS011;3542;48.812;9.146;2022-12-07T06:34:57;16.07;;;6.03;;
7003;SDS011;3542;48.812;9.146;2022-12-07T06:37:23;8.27;;;6.60;;
7003;SDS011;3542;48.812;9.146;2022-12-07T06:39:48;10.17;;;6.23;;
7003;SDS011;3542;48.812;9.146;2022-12-07T06:42:14;10.07;;;6.43;;
7003;SDS011;3542;48.812;9.146;2022-12-07T06:44:39;10.23;;;5.80;;
7003;SDS011;3542;48.812;9.146;2022-12-07T06:47:05;8.70;;;5.80;;
7003;SDS011;3542;48.812;9.146;2022-12-07T06:49:32;12.20;;;6.30;;
7003;SDS011;3542;48.812;9.146;2022-12-07T06:51:58;9.20;;;6.13;;
7003;SDS011;3542;48.812;9.146;2022-12-07T06:54:24;7.97;;;5.40;;
7003;SDS011;3542;48.812;9.146;2022-12-07T06:56:49;8.10;;;5.70;;
7003;SDS011;3542;48.812;9.146;2022-12-07T06:59:15;7.60;;;5.93;;
7003;SDS011;3542;48.812;9.146;2022-12-07T07:01:40;8.00;;;5.33;;
7003;SDS011;3542;48.812;9.146;2022-12-07T07:04:06;8.70;;;6.57;;
7003;SDS011;3542;48.812;9.146;2022-12-07T07:06:31;8.00;;;5.40;;
7003;SDS011;3542;48.812;9.146;2022-12-07T07:08:57;10.37;;;6.57;;
7003;SDS011;3542;48.812;9.146;2022-12-07T07:11:23;6.33;;;5.07;;
7003;SDS011;3542;48.812;9.146;2022-12-07T07:13:48;8.00;;;5.27;;
7003;SDS011;3542;48.812;9.146;2022-12-07T07:16:14;5.50;;;4.90;;
7003;SDS011;3542;48.812;9.146;2022-12-07T07:18:40;6.07;;;5.10;;
7003;SDS011;3542;48.812;9.146;2022-12-07T07:21:06;8.33;;;4.90;;
7003;SDS011;3542;48.812;9.146;2022-12-07T07:23:31;4.50;;;3.80;;
7003;SDS011;3542;48.812;9.146;2022-12-07T07:25:57;5.17;;;4.37;;
7003;SDS011;3542;48.812;9.146;2022-12-07T07:28:22;5.53;;;4.40;;
7003;SDS011;3542;48.812;9.146;2022-12-07T07:30:48;8.50;;;5.30;;
7003;SDS011;3542;48.812;9.146;2022-12-07T07:33:14;6.40;;;4.50;;
7003;SDS011;3542;48.812;9.146;2022-12-07T07:35:40;5.40;;;4.00;;
7003;SDS011;3542;48.812;9.146;2022-12-07T07:38:05;4.10;;;3.50;;
7003;SDS011;3542;48.812;9.146;2022-12-07T07:40:32;5.87;;;4.23;;
7003;SDS011;3542;48.812;9.146;2022-12-07T07:42:57;7.53;;;5.03;;
7003;SDS011;3542;48.812;9.146;2022-12-07T07:45:23;7.13;;;4.27;;
7003;SDS011;3542;48.812;9.146;2022-12-07T07:47:50;4.60;;;4.10;;
7003;SDS011;3542;48.812;9.146;2022-12-07T07:50:16;10.03;;;4.03;;
7003;SDS011;3542;48.812;9.146;2022-12-07T07:52:42;6.00;;;4.33;;
7003;SDS011;3542;48.812;9.146;2022-12-07T07:55:08;4.93;;;4.17;;
7003;SDS011;3542;48.812;9.146;2022-12-07T07:57:34;4.90;;;4.23;;
7003;SDS011;3542;48.812;9.146;2022-12-07T08:00:00;5.10;;;4.60;;
7003;SDS011;3542;48.812;9.146;2022-12-07T08:02:28;5.43;;;4.53;;
7003;SDS011;3542;48.812;9.146;2022-12-07T08:04:54;5.40;;;3.90;;
7003;SDS011;3542;48.812;9.146;2022-12-07T08:07:20;6.13;;;4.07;;
7003;SDS011;3542;48.812;9.146;2022-12-07T08:09:45;3.83;;;3.53;;
7003;SDS011;3542;48.812;9.146;2022-12-07T08:12:11;6.10;;;4.30;;
7003;SDS011;3542;48.812;9.146;2022-12-07T08:14:36;4.93;;;3.73;;
7003;SDS011;3542;48.812;9.146;2022-12-07T08:17:02;5.77;;;3.90;;
7003;SDS011;3542;48.812;9.146;2022-12-07T08:19:28;6.43;;;4.60;;
7003;SDS011;3542;48.812;9.146;2022-12-07T08:21:53;4.27;;;3.60;;
7003;SDS011;3542;48.812;9.146;2022-12-07T08:24:20;6.77;;;4.17;;
7003;SDS011;3542;48.812;9.146;2022-12-07T08:26:46;6.30;;;4.90;;
7003;SDS011;3542;48.812;9.146;2022-12-07T08:29:11;5.97;;;4.53;;
7003;SDS011;3542;48.812;9.146;2022-12-07T08:31:37;6.47;;;4.63;;
7003;SDS011;3542;48.812;9.146;2022-12-07T08:34:03;3.80;;;3.43;;
7003;SDS011;3542;48.812;9.146;2022-12-07T08:36:28;12.23;;;4.67;;
7003;SDS011;3542;48.812;9.146;2022-12-07T08:38:54;7.17;;;3.63;;
7003;SDS011;3542;48.812;9.146;2022-12-07T08:41:19;9.20;;;4.53;;
7003;SDS011;3542;48.812;9.146;2022-12-07T08:43:45;6.40;;;4.20;;
7003;SDS011;3542;48.812;9.146;2022-12-07T08:46:12;6.70;;;4.23;;
7003;SDS011;3542;48.812;9.146;2022-12-07T08:48:46;6.23;;;4.33;;
7003;SDS011;3542;48.812;9.146;2022-12-07T08:51:26;4.43;;;3.50;;
7003;SDS011;3542;48.812;9.146;2022-12-07T08:53:52;4.33;;;3.70;;
7003;SDS011;3542;48.812;9.146;2022-12-07T08:56:20;6.47;;;3.90;;
7003;SDS011;3542;48.812;9.146;2022-12-07T08:58:46;6.53;;;3.63;;
7003;SDS011;3542;48.812;9.146;2022-12-07T09:01:12;5.77;;;3.50;;
7003;SDS011;3542;48.812;9.146;2022-12-07T09:03:38;5.00;;;4.10;;
7003;SDS011;3542;48.812;9.146;2022-12-07T09:06:04;5.80;;;3.97;;
7003;SDS011;3542;48.812;9.146;2022-12-07T09:08:31;5.43;;;3.23;;
7003;SDS011;3542;48.812;9.146;2022-12-07T09:10:59;5.83;;;4.20;;
7003;SDS011;3542;48.812;9.146;2022-12-07T09:13:25;3.93;;;3.50;;
7003;SDS011;3542;48.812;9.146;2022-12-07T09:15:50;5.67;;;3.80;;
7003;SDS011;3542;48.812;9.146;2022-12-07T09:18:16;3.33;;;3.03;;
7003;SDS011;3542;48.812;9.146;2022-12-07T09:20:41;4.30;;;3.50;;
7003;SDS011;3542;48.812;9.146;2022-12-07T09:23:07;5.73;;;3.33;;
7003;SDS011;3542;48.812;9.146;2022-12-07T09:25:33;5.47;;;3.80;;
7003;SDS011;3542;48.812;9.146;2022-12-07T09:27:59;8.10;;;3.80;;
7003;SDS011;3542;48.812;9.146;2022-12-07T09:30:25;4.40;;;2.90;;
7003;SDS011;3542;48.812;9.146;2022-12-07T09:32:55;4.40;;;3.63;;
7003;SDS011;3542;48.812;9.146;2022-12-07T09:35:22;3.20;;;2.90;;
7003;SDS011;3542;48.812;9.146;2022-12-07T09:37:48;3.20;;;2.90;;
7003;SDS011;3542;48.812;9.146;2022-12-07T09:40:14;4.47;;;3.50;;
7003;SDS011;3542;48.812;9.146;2022-12-07T09:42:42;9.43;;;3.70;;
7003;SDS011;3542;48.812;9.146;2022-12-07T09:45:14;3.70;;;3.40;;
7003;SDS011;3542;48.812;9.146;2022-12-07T09:47:45;4.20;;;3.00;;
7003;SDS011;3542;48.812;9.146;2022-12-07T09:50:22;3.50;;;2.90;;
7003;SDS011;3542;48.812;9.146;2022-12-07T09:52:50;3.70;;;3.10;;
7003;SDS011;3542;48.812;9.146;2022-12-07T09:55:27;3.73;;;2.90;;
7003;SDS011;3542;48.812;9.146;2022-12-07T09:57:54;3.13;;;2.30;;
7003;SDS011;3542;48.812;9.146;2022-12-07T10:00:22;4.77;;;3.00;;
7003;SDS011;3542;48.812;9.146;2022-12-07T10:02:56;3.87;;;2.90;;
7003;SDS011;3542;48.812;9.146;2022-12-07T10:05:27;4.57;;;3.20;;
7003;SDS011;3542;48.812;9.146;2022-12-07T10:08:05;3.30;;;3.00;;
7003;SDS011;3542;48.812;9.146;2022-12-07T10:10:33;4.93;;;2.93;;
7003;SDS011;3542;48.812;9.146;2022-12-07T10:13:07;4.90;;;3.53;;
7003;SDS011;3542;48.812;9.146;2022-12-07T10:15:47;4.47;;;3.43;;
7003;SDS011;3542;48.812;9.146;2022-12-07T10:20:46;5.10;;;4.33;;
7003;SDS011;3542;48.812;9.146;2022-12-07T10:23:17;3.90;;;3.17;;
7003;SDS011;3542;48.812;9.146;2022-12-07T10:25:43;5.77;;;4.13;;
7003;SDS011;3542;48.812;9.146;2022-12-07T10:28:17;4.87;;;3.73;;
7003;SDS011;3542;48.812;9.146;2022-12-07T10:35:56;5.50;;;4.00;;
7003;SDS011;3542;48.812;9.146;2022-12-07T10:38:23;7.00;;;4.83;;
7003;SDS011;3542;48.812;9.146;2022-12-07T10:41:02;5.30;;;3.77;;
7003;SDS011;3542;48.812;9.146;2022-12-07T10:43:31;4.77;;;3.67;;
7003;SDS011;3542;48.812;9.146;2022-12-07T10:48:58;7.27;;;5.33;;
7003;SDS011;3542;48.812;9.146;2022-12-07T10:51:34;4.43;;;4.00;;
7003;SDS011;3542;48.812;9.146;2022-12-07T10:54:20;4.90;;;4.07;;
7003;SDS011;3542;48.812;9.146;2022-12-07T11:00:00;5.07;;;4.13;;
7003;SDS011;3542;48.812;9.146;2022-12-07T11:05:42;3.57;;;2.17;;
7003;SDS011;3542;48.812;9.146;2022-12-07T11:24:22;3.27;;;2.97;;
7003;SDS011;3542;48.812;9.146;2022-12-07T11:29:40;2.17;;;1.97;;
7003;SDS011;3542;48.812;9.146;2022-12-07T11:34:54;3.10;;;2.40;;
7003;SDS011;3542;48.812;9.146;2022-12-07T11:37:31;3.67;;;2.93;;
7003;SDS011;3542;48.812;9.146;2022-12-07T11:40:03;6.13;;;4.57;;
7003;SDS011;3542;48.812;9.146;2022-12-07T11:42:38;5.87;;;4.40;;
7003;SDS011;3542;48.812;9.146;2022-12-07T11:45:19;6.83;;;4.23;;
7003;SDS011;3542;48.812;9.146;2022-12-07T11:47:55;12.60;;;5.03;;
7003;SDS011;3542;48.812;9.146;2022-12-07T11:55:42;5.50;;;4.70;;
7003;SDS011;3542;48.812;9.146;2022-12-07T12:03:45;6.87;;;4.50;;
7003;SDS011;3542;48.812;9.146;2022-12-07T12:06:19;7.27;;;5.07;;
7003;SDS011;3542;48.812;9.146;2022-12-07T12:08:54;5.83;;;4.70;;
7003;SDS011;3542;48.812;9.146;2022-12-07T12:11:37;5.60;;;4.57;;
7003;SDS011;3542;48.812;9.146;2022-12-07T12:14:32;5.43;;;4.67;;
7003;SDS011;3542;48.812;9.146;2022-12-07T12:20:19;9.50;;;5.57;;
7003;SDS011;3542;48.812;9.146;2022-12-07T12:25:26;7.30;;;5.93;;
7003;SDS011;3542;48.812;9.146;2022-12-07T12:27:55;5.70;;;4.90;;
7003;SDS011;3542;48.812;9.146;2022-12-07T12:33:25;5.77;;;4.90;;
7003;SDS011;3542;48.812;9.146;2022-12-07T12:44:14;5.83;;;4.97;;
7003;SDS011;3542;48.812;9.146;2022-12-07T12:46:54;6.00;;;4.53;;
7003;SDS011;3542;48.812;9.146;2022-12-07T12:51:53;5.87;;;4.97;;
7003;SDS011;3542;48.812;9.146;2022-12-07T12:54:33;8.93;;;5.50;;
7003;SDS011;3542;48.812;9.146;2022-12-07T13:02:21;7.70;;;5.80;;
7003;SDS011;3542;48.812;9.146;2022-12-07T13:04:54;6.77;;;4.40;;
7003;SDS011;3542;48.812;9.146;2022-12-07T13:10:21;6.37;;;4.90;;
7003;SDS011;3542;48.812;9.146;2022-12-07T13:20:48;4.40;;;3.97;;
7003;SDS011;3542;48.812;9.146;2022-12-07T13:23:16;11.00;;;5.27;;
7003;SDS011;3542;48.812;9.146;2022-12-07T13:25:49;6.40;;;5.27;;
7003;SDS011;3542;48.812;9.146;2022-12-07T13:28:21;5.03;;;4.30;;
7003;SDS011;3542;48.812;9.146;2022-12-07T13:33:49;6.40;;;5.60;;
7003;SDS011;3542;48.812;9.146;2022-12-07T13:36:22;8.13;;;6.03;;
7003;SDS011;3542;48.812;9.146;2022-12-07T13:38:51;6.20;;;4.50;;
7003;SDS011;3542;48.812;9.146;2022-12-07T13:41:22;7.93;;;5.63;;
7003;SDS011;3542;48.812;9.146;2022-12-07T13:49:18;6.20;;;5.60;;
7003;SDS011;3542;48.812;9.146;2022-12-07T13:51:46;6.17;;;5.50;;
7003;SDS011;3542;48.812;9.146;2022-12-07T13:54:12;8.17;;;5.93;;
7003;SDS011;3542;48.812;9.146;2022-12-07T13:56:39;15.17;;;6.10;;
7003;SDS011;3542;48.812;9.146;2022-12-07T13:59:05;7.60;;;5.70;;
7003;SDS011;3542;48.812;9.146;2022-12-07T14:01:41;8.50;;;5.53;;
7003;SDS011;3542;48.812;9.146;2022-12-07T14:04:18;8.90;;;5.50;;
7003;SDS011;3542;48.812;9.146;2022-12-07T14:06:50;7.97;;;5.73;;
7003;SDS011;3542;48.812;9.146;2022-12-07T14:11:44;14.63;;;6.40;;
7003;SDS011;3542;48.812;9.146;2022-12-07T14:14:17;7.50;;;5.33;;
7003;SDS011;3542;48.812;9.146;2022-12-07T14:16:54;14.30;;;7.70;;
7003;SDS011;3542;48.812;9.146;2022-12-07T14:38:14;9.40;;;6.87;;
7003;SDS011;3542;48.812;9.146;2022-12-07T14:40:40;8.90;;;5.50;;
7003;SDS011;3542;48.812;9.146;2022-12-07T14:43:09;6.97;;;5.00;;
7003;SDS011;3542;48.812;9.146;2022-12-07T14:45:37;6.63;;;5.43;;
7003;SDS011;3542;48.812;9.146;2022-12-07T14:48:04;31.50;;;13.27;;
7003;SDS011;3542;48.812;9.146;2022-12-07T14:50:30;8.10;;;6.90;;
7003;SDS011;3542;48.812;9.146;2022-12-07T14:53:06;9.50;;;6.03;;
7003;SDS011;3542;48.812;9.146;2022-12-07T14:55:37;11.30;;;6.00;;
7003;SDS011;3542;48.812;9.146;2022-12-07T14:58:03;11.53;;;5.90;;
7003;SDS011;3542;48.812;9.146;2022-12-07T15:00:29;8.83;;;7.17;;
7003;SDS011;3542;48.812;9.146;2022-12-07T15:02:54;10.40;;;8.60;;
7003;SDS011;3542;48.812;9.146;2022-12-07T15:05:21;8.90;;;6.83;;
7003;SDS011;3542;48.812;9.146;2022-12-07T15:07:47;8.63;;;7.10;;
7003;SDS011;3542;48.812;9.146;2022-12-07T15:10:17;7.80;;;6.30;;
7003;SDS011;3542;48.812;9.146;2022-12-07T15:12:47;10.47;;;6.97;;
7003;SDS011;3542;48.812;9.146;2022-12-07T15:15:13;7.90;;;6.00;;
7003;SDS011;3542;48.812;9.146;2022-12-07T15:17:39;9.00;;;6.37;;
7003;SDS011;3542;48.812;9.146;2022-12-07T15:20:05;11.80;;;7.00;;
7003;SDS011;3542;48.812;9.146;2022-12-07T15:22:32;8.43;;;6.00;;
7003;SDS011;3542;48.812;9.146;2022-12-07T15:24:58;8.90;;;6.87;;
7003;SDS011;3542;48.812;9.146;2022-12-07T15:27:23;7.63;;;6.57;;
7003;SDS011;3542;48.812;9.146;2022-12-07T15:29:49;9.23;;;6.53;;
7003;SDS011;3542;48.812;9.146;2022-12-07T15:32:15;11.80;;;7.00;;
7003;SDS011;3542;48.812;9.146;2022-12-07T15:34:40;9.27;;;6.77;;
7003;SDS011;3542;48.812;9.146;2022-12-07T15:37:06;13.60;;;6.73;;
7003;SDS011;3542;48.812;9.146;2022-12-07T15:39:32;12.57;;;8.00;;
7003;SDS011;3542;48.812;9.146;2022-12-07T15:41:57;10.80;;;6.97;;
7003;SDS011;3542;48.812;9.146;2022-12-07T15:44:23;14.83;;;8.50;;
7003;SDS011;3542;48.812;9.146;2022-12-07T15:47:07;12.63;;;7.30;;
7003;SDS011;3542;48.812;9.146;2022-12-07T15:49:32;9.00;;;6.73;;
7003;SDS011;3542;48.812;9.146;2022-12-07T15:51:58;9.83;;;6.53;;
7003;SDS011;3542;48.812;9.146;2022-12-07T15:54:24;12.67;;;7.70;;
7003;SDS011;3542;48.812;9.146;2022-12-07T15:56:51;10.53;;;6.60;;
7003;SDS011;3542;48.812;9.146;2022-12-07T15:59:17;10.93;;;7.43;;
7003;SDS011;3542;48.812;9.146;2022-12-07T16:01:43;10.53;;;6.87;;
7003;SDS011;3542;48.812;9.146;2022-12-07T16:04:09;11.40;;;8.23;;
7003;SDS011;3542;48.812;9.146;2022-12-07T16:06:35;13.20;;;8.67;;
7003;SDS011;3542;48.812;9.146;2022-12-07T16:09:00;13.90;;;8.10;;
7003;SDS011;3542;48.812;9.146;2022-12-07T16:11:26;9.07;;;6.73;;
7003;SDS011;3542;48.812;9.146;2022-12-07T16:13:52;11.10;;;7.77;;
7003;SDS011;3542;48.812;9.146;2022-12-07T16:16:18;12.27;;;7.47;;
7003;SDS011;3542;48.812;9.146;2022-12-07T16:18:45;18.13;;;7.90;;
7003;SDS011;3542;48.812;9.146;2022-12-07T16:21:12;13.40;;;8.60;;
7003;SDS011;3542;48.812;9.146;2022-12-07T16:23:38;13.90;;;9.73;;
7003;SDS011;3542;48.812;9.146;2022-12-07T16:26:07;15.10;;;8.97;;
7003;SDS011;3542;48.812;9.146;2022-12-07T16:28:35;12.47;;;8.47;;
7003;SDS011;3542;48.812;9.146;2022-12-07T16:31:02;14.03;;;8.53;;
7003;SDS011;3542;48.812;9.146;2022-12-07T16:33:29;14.20;;;9.40;;
7003;SDS011;3542;48.812;9.146;2022-12-07T16:35:54;21.00;;;11.10;;
7003;SDS011;3542;48.812;9.146;2022-12-07T16:38:20;13.50;;;8.90;;
7003;SDS011;3542;48.812;9.146;2022-12-07T16:40:46;15.27;;;9.97;;
7003;SDS011;3542;48.812;9.146;2022-12-07T16:43:12;14.77;;;9.90;;
7003;SDS011;3542;48.812;9.146;2022-12-07T16:45:39;15.60;;;9.10;;
7003;SDS011;3542;48.812;9.146;2022-12-07T16:48:04;14.97;;;9.30;;
7003;SDS011;3542;48.812;9.146;2022-12-07T16:50:30;15.40;;;10.23;;
7003;SDS011;3542;48.812;9.146;2022-12-07T16:52:55;14.13;;;8.93;;
7003;SDS011;3542;48.812;9.146;2022-12-07T16:55:21;13.17;;;8.20;;
7003;SDS011;3542;48.812;9.146;2022-12-07T16:57:46;14.73;;;8.40;;
7003;SDS011;3542;48.812;9.146;2022-12-07T17:00:12;14.80;;;9.53;;
7003;SDS011;3542;48.812;9.146;2022-12-07T17:02:38;18.77;;;9.73;;
7003;SDS011;3542;48.812;9.146;2022-12-07T17:05:03;16.97;;;10.30;;
7003;SDS011;3542;48.812;9.146;2022-12-07T17:07:29;13.63;;;8.97;;
7003;SDS011;3542;48.812;9.146;2022-12-07T17:09:54;15.20;;;9.37;;
7003;SDS011;3542;48.812;9.146;2022-12-07T17:12:20;13.10;;;8.10;;
7003;SDS011;3542;48.812;9.146;2022-12-07T17:14:45;16.97;;;9.67;;
7003;SDS011;3542;48.812;9.146;2022-12-07T17:17:30;13.87;;;8.57;;
7003;SDS011;3542;48.812;9.146;2022-12-07T17:19:55;16.03;;;8.63;;
7003;SDS011;3542;48.812;9.146;2022-12-07T17:22:21;12.00;;;8.77;;
7003;SDS011;3542;48.812;9.146;2022-12-07T17:24:46;16.87;;;8.30;;
7003;SDS011;3542;48.812;9.146;2022-12-07T17:27:12;16.57;;;8.93;;
7003;SDS011;3542;48.812;9.146;2022-12-07T17:29:37;11.77;;;7.33;;
7003;SDS011;3542;48.812;9.146;2022-12-07T17:32:03;14.20;;;7.40;;
7003;SDS011;3542;48.812;9.146;2022-12-07T17:34:28;12.37;;;7.70;;
7003;SDS011;3542;48.812;9.146;2022-12-07T17:36:54;13.57;;;8.17;;
7003;SDS011;3542;48.812;9.146;2022-12-07T17:39:19;14.63;;;8.83;;
7003;SDS011;3542;48.812;9.146;2022-12-07T17:41:45;14.57;;;8.30;;
7003;SDS011;3542;48.812;9.146;2022-12-07T17:44:29;14.30;;;9.27;;
7003;SDS011;3542;48.812;9.146;2022-12-07T17:46:55;11.13;;;8.50;;
7003;SDS011;3542;48.812;9.146;2022-12-07T17:49:23;12.63;;;9.40;;
7003;SDS011;3542;48.812;9.146;2022-12-07T17:51:50;16.60;;;10.93;;
7003;SDS011;3542;48.812;9.146;2022-12-07T17:54:34;16.50;;;10.37;;
7003;SDS011;3542;48.812;9.146;2022-12-07T17:57:00;21.57;;;10.63;;
7003;SDS011;3542;48.812;9.146;2022-12-07T17:59:25;15.87;;;11.03;;
7003;SDS011;3542;48.812;9.146;2022-12-07T18:01:51;13.80;;;9.87;;
7003;SDS011;3542;48.812;9.146;2022-12-07T18:04:17;17.20;;;10.50;;
7003;SDS011;3542;48.812;9.146;2022-12-07T18:06:42;17.17;;;9.10;;
7003;SDS011;3542;48.812;9.146;2022-12-07T18:09:08;13.73;;;9.40;;
7003;SDS011;3542;48.812;9.146;2022-12-07T18:11:34;16.90;;;10.60;;
7003;SDS011;3542;48.812;9.146;2022-12-07T18:14:00;15.10;;;10.10;;
7003;SDS011;3542;48.812;9.146;2022-12-07T18:16:27;14.33;;;9.13;;
7003;SDS011;3542;48.812;9.146;2022-12-07T18:18:54;15.70;;;10.00;;
7003;SDS011;3542;48.812;9.146;2022-12-07T18:21:24;15.83;;;10.67;;
7003;SDS011;3542;48.812;9.146;2022-12-07T18:23:54;17.20;;;9.50;;
7003;SDS011;3542;48.812;9.146;2022-12-07T18:26:22;14.50;;;9.90;;
7003;SDS011;3542;48.812;9.146;2022-12-07T18:28:49;14.87;;;8.63;;
7003;SDS011;3542;48.812;9.146;2022-12-07T18:31:16;18.70;;;10.50;;
7003;SDS011;3542;48.812;9.146;2022-12-07T18:33:43;22.20;;;11.50;;
7003;SDS011;3542;48.812;9.146;2022-12-07T18:36:09;32.50;;;13.90;;
7003;SDS011;3542;48.812;9.146;2022-12-07T18:38:35;25.67;;;13.87;;
7003;SDS011;3542;48.812;9.146;2022-12-07T18:41:01;25.97;;;12.03;;
7003;SDS011;3542;48.812;9.146;2022-12-07T18:43:27;22.40;;;12.77;;
7003;SDS011;3542;48.812;9.146;2022-12-07T18:45:53;25.77;;;14.00;;
7003;SDS011;3542;48.812;9.146;2022-12-07T18:48:20;25.27;;;13.47;;